sensor_id;sensor_type;location;lat;lon;timestamp;pressure;altitude;pressure_sealevel;temperature;humidity
3250;BME280;1637;42.020;23.992;2023-11-19T00:01:03;92395.81;;;4.07;64.91
3250;BME280;1637;42.020;23.992;2023-11-19T00:03:30;92401.13;;;4.07;65.30
3250;BME280;1637;42.020;23.992;2023-11-19T00:05:58;92395.09;;;4.17;65.67
3250;BME280;1637;42.020;23.992;2023-11-19T00:08:25;92388.75;;;4.29;65.34
3250;BME280;1637;42.020;23.992;2023-11-19T00:10:52;92381.88;;;4.21;65.77
3250;BME280;1637;42.020;23.992;2023-11-19T00:13:19;92376.28;;;4.33;65.79
3250;BME280;1637;42.020;23.992;2023-11-19T00:15:46;92384.06;;;4.04;66.37
3250;BME280;1637;42.020;23.992;2023-11-19T00:18:14;92389.97;;;3.84;67.49
3250;BME280;1637;42.020;23.992;2023-11-19T00:20:41;92389.97;;;3.84;67.97
3250;BME280;1637;42.020;23.992;2023-11-19T00:23:10;92379.78;;;3.86;67.61
3250;BME280;1637;42.020;23.992;2023-11-19T00:25:37;92377.53;;;3.88;67.76
3250;BME280;1637;42.020;23.992;2023-11-19T00:28:04;92391.19;;;3.97;67.23
3250;BME280;1637;42.020;23.992;2023-11-19T00:30:31;92384.09;;;4.11;66.88
3250;BME280;1637;42.020;23.992;2023-11-19T00:32:58;92376.19;;;4.19;67.17
3250;BME280;1637;42.020;23.992;2023-11-19T00:35:26;92370.03;;;4.04;66.17
3250;BME280;1637;42.020;23.992;2023-11-19T00:37:53;92370.09;;;4.11;66.50
3250;BME280;1637;42.020;23.992;2023-11-19T00:40:20;92377.59;;;4.02;66.23
3250;BME280;1637;42.020;23.992;2023-11-19T00:42:48;92391.94;;;3.97;66.42
3250;BME280;1637;42.020;23.992;2023-11-19T00:45:15;92400.34;;;4.06;67.17
3250;BME280;1637;42.020;23.992;2023-11-19T00:47:42;92399.16;;;4.00;66.72
3250;BME280;1637;42.020;23.992;2023-11-19T00:50:10;92413.56;;;4.03;66.95
3250;BME280;1637;42.020;23.992;2023-11-19T00:52:38;92396.91;;;4.02;66.90
3250;BME280;1637;42.020;23.992;2023-11-19T00:55:06;92400.28;;;3.99;66.67
3250;BME280;1637;42.020;23.992;2023-11-19T00:57:33;92393.41;;;3.88;67.94
3250;BME280;1637;42.020;23.992;2023-11-19T01:00:00;92399.47;;;3.88;67.67
3250;BME280;1637;42.020;23.992;2023-11-19T01:02:32;92396.81;;;3.88;68.05
3250;BME280;1637;42.020;23.992;2023-11-19T01:05:00;92401.78;;;3.93;68.18
3250;BME280;1637;42.020;23.992;2023-11-19T01:07:26;92396.44;;;3.86;68.49
3250;BME280;1637;42.020;23.992;2023-11-19T01:09:55;92397.59;;;3.89;67.49
3250;BME280;1637;42.020;23.992;2023-11-19T01:12:21;92404.81;;;3.92;68.40
3250;BME280;1637;42.020;23.992;2023-11-19T01:14:48;92387.25;;;3.73;68.52
3250;BME280;1637;42.020;23.992;2023-11-19T01:17:15;92413.78;;;3.80;68.69
3250;BME280;1637;42.020;23.992;2023-11-19T01:19:42;92406.94;;;3.75;68.95
3250;BME280;1637;42.020;23.992;2023-11-19T01:22:09;92410.84;;;3.89;67.98
3250;BME280;1637;42.020;23.992;2023-11-19T01:24:36;92401.41;;;3.98;67.49
3250;BME280;1637;42.020;23.992;2023-11-19T01:27:04;92399.09;;;3.90;67.78
3250;BME280;1637;42.020;23.992;2023-11-19T01:29:31;92385.47;;;3.88;67.30
3250;BME280;1637;42.020;23.992;2023-11-19T01:31:58;92389.94;;;3.80;68.00
3250;BME280;1637;42.020;23.992;2023-11-19T01:34:25;92394.19;;;3.88;68.02
3250;BME280;1637;42.020;23.992;2023-11-19T01:36:52;92383.56;;;3.88;67.92
3250;BME280;1637;42.020;23.992;2023-11-19T01:39:19;92376.78;;;3.91;67.80
3250;BME280;1637;42.020;23.992;2023-11-19T01:41:46;92380.06;;;3.77;68.85
3250;BME280;1637;42.020;23.992;2023-11-19T01:44:14;92378.94;;;3.78;68.55
3250;BME280;1637;42.020;23.992;2023-11-19T01:46:42;92346.41;;;3.74;68.19
3250;BME280;1637;42.020;23.992;2023-11-19T01:49:11;92362.75;;;3.87;67.65
3250;BME280;1637;42.020;23.992;2023-11-19T01:51:39;92359.75;;;3.92;68.46
3250;BME280;1637;42.020;23.992;2023-11-19T01:54:07;92380.22;;;3.98;68.32
3250;BME280;1637;42.020;23.992;2023-11-19T01:56:34;92370.91;;;4.22;67.19
3250;BME280;1637;42.020;23.992;2023-11-19T01:59:02;92370.06;;;4.07;66.66
3250;BME280;1637;42.020;23.992;2023-11-19T02:01:31;92371.16;;;3.99;67.49
3250;BME280;1637;42.020;23.992;2023-11-19T02:04:00;92372.31;;;4.05;67.34
3250;BME280;1637;42.020;23.992;2023-11-19T02:06:28;92374.63;;;4.10;67.61
3250;BME280;1637;42.020;23.992;2023-11-19T02:08:55;92362.44;;;3.99;68.51
3250;BME280;1637;42.020;23.992;2023-11-19T02:11:22;92387.91;;;4.14;68.00
3250;BME280;1637;42.020;23.992;2023-11-19T02:13:49;92384.47;;;4.10;67.40
3250;BME280;1637;42.020;23.992;2023-11-19T02:16:16;92380.47;;;3.79;69.02
3250;BME280;1637;42.020;23.992;2023-11-19T02:18:44;92394.09;;;3.74;69.29
3250;BME280;1637;42.020;23.992;2023-11-19T02:21:11;92387.28;;;3.80;67.78
3250;BME280;1637;42.020;23.992;2023-11-19T02:23:40;92394.88;;;3.82;67.83
3250;BME280;1637;42.020;23.992;2023-11-19T02:26:13;92402.44;;;3.79;68.46
3250;BME280;1637;42.020;23.992;2023-11-19T02:28:42;92398.19;;;3.68;69.56
3250;BME280;1637;42.020;23.992;2023-11-19T02:31:10;92402.72;;;3.67;69.37
3250;BME280;1637;42.020;23.992;2023-11-19T02:33:37;92412.84;;;3.58;69.80
3250;BME280;1637;42.020;23.992;2023-11-19T02:36:04;92409.16;;;3.66;70.22
3250;BME280;1637;42.020;23.992;2023-11-19T02:38:32;92413.91;;;3.47;69.96
3250;BME280;1637;42.020;23.992;2023-11-19T02:41:01;92419.88;;;3.40;70.70
3250;BME280;1637;42.020;23.992;2023-11-19T02:43:30;92418.72;;;3.37;70.86
3250;BME280;1637;42.020;23.992;2023-11-19T02:46:00;92406.88;;;3.24;71.23
3250;BME280;1637;42.020;23.992;2023-11-19T02:48:27;92409.97;;;3.33;70.77
3250;BME280;1637;42.020;23.992;2023-11-19T02:50:54;92409.97;;;3.33;70.79
3250;BME280;1637;42.020;23.992;2023-11-19T02:53:23;92405.81;;;3.29;70.73
3250;BME280;1637;42.020;23.992;2023-11-19T02:55:53;92402.13;;;3.40;70.57
3250;BME280;1637;42.020;23.992;2023-11-19T02:58:26;92403.63;;;3.41;70.84
3250;BME280;1637;42.020;23.992;2023-11-19T03:00:54;92408.50;;;3.36;70.60
3250;BME280;1637;42.020;23.992;2023-11-19T03:03:24;92419.06;;;3.32;71.59
3250;BME280;1637;42.020;23.992;2023-11-19T03:05:56;92411.25;;;3.47;70.65
3250;BME280;1637;42.020;23.992;2023-11-19T03:08:23;92413.03;;;3.35;69.92
3250;BME280;1637;42.020;23.992;2023-11-19T03:10:50;92429.19;;;3.23;71.10
3250;BME280;1637;42.020;23.992;2023-11-19T03:13:16;92430.03;;;3.31;70.12
3250;BME280;1637;42.020;23.992;2023-11-19T03:15:43;92430.66;;;3.21;70.78
3250;BME280;1637;42.020;23.992;2023-11-19T03:18:10;92429.06;;;3.13;70.76
3250;BME280;1637;42.020;23.992;2023-11-19T03:20:38;92415.59;;;2.88;72.36
3250;BME280;1637;42.020;23.992;2023-11-19T03:23:06;92428.97;;;2.68;72.39
3250;BME280;1637;42.020;23.992;2023-11-19T03:25:33;92432.63;;;2.90;72.64
3250;BME280;1637;42.020;23.992;2023-11-19T03:28:00;92439.31;;;2.81;73.52
3250;BME280;1637;42.020;23.992;2023-11-19T03:30:28;92424.56;;;2.50;74.97
3250;BME280;1637;42.020;23.992;2023-11-19T03:32:55;92427.66;;;2.55;75.73
3250;BME280;1637;42.020;23.992;2023-11-19T03:35:22;92425.72;;;2.49;75.76
3250;BME280;1637;42.020;23.992;2023-11-19T03:37:50;92426.81;;;2.48;75.32
3250;BME280;1637;42.020;23.992;2023-11-19T03:40:18;92411.22;;;2.39;75.09
3250;BME280;1637;42.020;23.992;2023-11-19T03:42:45;92422.41;;;2.59;74.97
3250;BME280;1637;42.020;23.992;2023-11-19T03:45:11;92430.81;;;2.64;75.33
3250;BME280;1637;42.020;23.992;2023-11-19T03:47:38;92429.94;;;2.57;75.38
3250;BME280;1637;42.020;23.992;2023-11-19T03:50:07;92443.72;;;2.73;74.88
3250;BME280;1637;42.020;23.992;2023-11-19T03:52:34;92435.53;;;2.82;74.94
3250;BME280;1637;42.020;23.992;2023-11-19T03:55:03;92434.63;;;2.70;74.93
3250;BME280;1637;42.020;23.992;2023-11-19T03:57:31;92454.09;;;2.55;76.41
3250;BME280;1637;42.020;23.992;2023-11-19T03:59:57;92457.44;;;2.82;75.65
3250;BME280;1637;42.020;23.992;2023-11-19T04:02:25;92461.94;;;2.78;75.27
3250;BME280;1637;42.020;23.992;2023-11-19T04:04:54;92458.91;;;2.50;76.43
3250;BME280;1637;42.020;23.992;2023-11-19T04:07:21;92462.28;;;2.76;75.99
3250;BME280;1637;42.020;23.992;2023-11-19T04:09:48;92466.00;;;2.72;76.14
3250;BME280;1637;42.020;23.992;2023-11-19T04:12:16;92467.47;;;2.39;78.12
3250;BME280;1637;42.020;23.992;2023-11-19T04:14:43;92469.31;;;2.09;79.33
3250;BME280;1637;42.020;23.992;2023-11-19T04:17:10;92459.94;;;1.89;80.46
3250;BME280;1637;42.020;23.992;2023-11-19T04:19:38;92467.44;;;1.83;81.52
3250;BME280;1637;42.020;23.992;2023-11-19T04:22:06;92479.38;;;1.77;82.30
3250;BME280;1637;42.020;23.992;2023-11-19T04:24:33;92485.44;;;1.78;82.53
3250;BME280;1637;42.020;23.992;2023-11-19T04:27:00;92477.50;;;1.55;83.24
3250;BME280;1637;42.020;23.992;2023-11-19T04:29:29;92478.09;;;1.45;84.46
3250;BME280;1637;42.020;23.992;2023-11-19T04:31:57;92481.84;;;1.21;85.64
3250;BME280;1637;42.020;23.992;2023-11-19T04:34:24;92476.91;;;1.19;85.39
3250;BME280;1637;42.020;23.992;2023-11-19T04:36:51;92472.88;;;1.06;86.46
3250;BME280;1637;42.020;23.992;2023-11-19T04:39:18;92446.09;;;0.85;86.99
3250;BME280;1637;42.020;23.992;2023-11-19T04:41:49;92476.63;;;1.24;86.87
3250;BME280;1637;42.020;23.992;2023-11-19T04:44:17;92474.09;;;1.31;86.14
3250;BME280;1637;42.020;23.992;2023-11-19T04:46:45;92478.00;;;1.18;86.84
3250;BME280;1637;42.020;23.992;2023-11-19T04:49:14;92486.97;;;0.94;87.05
3250;BME280;1637;42.020;23.992;2023-11-19T04:51:42;92494.47;;;0.92;87.45
3250;BME280;1637;42.020;23.992;2023-11-19T04:54:10;92518.41;;;0.84;88.71
3250;BME280;1637;42.020;23.992;2023-11-19T04:56:37;92498.56;;;0.90;89.49
3250;BME280;1637;42.020;23.992;2023-11-19T04:59:04;92495.81;;;0.83;89.51
3250;BME280;1637;42.020;23.992;2023-11-19T05:01:32;92499.41;;;0.94;89.52
3250;BME280;1637;42.020;23.992;2023-11-19T05:04:00;92501.63;;;0.92;88.81
3250;BME280;1637;42.020;23.992;2023-11-19T05:06:27;92508.00;;;0.91;89.16
3250;BME280;1637;42.020;23.992;2023-11-19T05:08:55;92521.31;;;1.17;92.18
3250;BME280;1637;42.020;23.992;2023-11-19T05:11:22;92490.38;;;1.14;88.33
3250;BME280;1637;42.020;23.992;2023-11-19T05:13:49;92510.38;;;0.96;89.40
3250;BME280;1637;42.020;23.992;2023-11-19T05:16:16;92513.41;;;0.98;89.38
3250;BME280;1637;42.020;23.992;2023-11-19T05:18:43;92503.72;;;0.83;90.79
3250;BME280;1637;42.020;23.992;2023-11-19T05:21:11;92522.50;;;1.20;88.44
3250;BME280;1637;42.020;23.992;2023-11-19T05:23:38;92499.91;;;0.80;88.14
3250;BME280;1637;42.020;23.992;2023-11-19T05:26:07;92520.97;;;0.80;89.10
3250;BME280;1637;42.020;23.992;2023-11-19T05:28:34;92523.81;;;0.72;90.48
3250;BME280;1637;42.020;23.992;2023-11-19T05:31:01;92522.97;;;0.87;89.61
3250;BME280;1637;42.020;23.992;2023-11-19T05:33:28;92531.22;;;1.04;88.92
3250;BME280;1637;42.020;23.992;2023-11-19T05:35:55;92525.97;;;1.04;88.52
3250;BME280;1637;42.020;23.992;2023-11-19T05:38:23;92550.47;;;1.05;89.43
3250;BME280;1637;42.020;23.992;2023-11-19T05:40:50;92558.09;;;1.29;87.66
3250;BME280;1637;42.020;23.992;2023-11-19T05:43:17;92547.44;;;1.22;86.66
3250;BME280;1637;42.020;23.992;2023-11-19T05:45:44;92521.59;;;0.74;88.80
3250;BME280;1637;42.020;23.992;2023-11-19T05:48:11;92551.78;;;1.15;88.46
3250;BME280;1637;42.020;23.992;2023-11-19T05:50:38;92549.56;;;0.97;88.68
3250;BME280;1637;42.020;23.992;2023-11-19T05:53:05;92550.53;;;1.09;88.79
3250;BME280;1637;42.020;23.992;2023-11-19T05:55:36;92550.75;;;1.38;88.16
3250;BME280;1637;42.020;23.992;2023-11-19T05:58:10;92545.06;;;1.36;87.56
3250;BME280;1637;42.020;23.992;2023-11-19T06:00:37;92559.50;;;2.34;84.14
3250;BME280;1637;42.020;23.992;2023-11-19T06:03:04;92558.59;;;4.06;76.15
3250;BME280;1637;42.020;23.992;2023-11-19T06:05:31;92565.84;;;4.64;72.15
3250;BME280;1637;42.020;23.992;2023-11-19T06:07:58;92563.13;;;3.01;76.38
3250;BME280;1637;42.020;23.992;2023-11-19T06:10:25;92556.38;;;2.51;80.07
3250;BME280;1637;42.020;23.992;2023-11-19T06:12:57;92564.31;;;3.37;77.32
3250;BME280;1637;42.020;23.992;2023-11-19T06:15:25;92565.66;;;4.39;74.64
3250;BME280;1637;42.020;23.992;2023-11-19T06:17:52;92585.56;;;5.25;69.92
3250;BME280;1637;42.020;23.992;2023-11-19T06:20:18;92572.69;;;5.30;70.08
3250;BME280;1637;42.020;23.992;2023-11-19T06:22:46;92573.38;;;6.99;65.05
3250;BME280;1637;42.020;23.992;2023-11-19T06:25:13;92576.41;;;6.66;64.91
3250;BME280;1637;42.020;23.992;2023-11-19T06:27:40;92584.78;;;6.96;63.77
3250;BME280;1637;42.020;23.992;2023-11-19T06:30:09;92601.78;;;8.36;60.26
3250;BME280;1637;42.020;23.992;2023-11-19T06:32:37;92617.09;;;9.32;56.66
3250;BME280;1637;42.020;23.992;2023-11-19T06:35:04;92626.56;;;9.36;56.15
3250;BME280;1637;42.020;23.992;2023-11-19T06:37:31;92631.44;;;9.48;56.89
3250;BME280;1637;42.020;23.992;2023-11-19T06:39:58;92627.69;;;8.94;58.29
3250;BME280;1637;42.020;23.992;2023-11-19T06:42:25;92623.38;;;9.52;56.44
3250;BME280;1637;42.020;23.992;2023-11-19T06:44:52;92626.44;;;9.84;55.69
3250;BME280;1637;42.020;23.992;2023-11-19T06:47:20;92614.84;;;8.78;56.57
3250;BME280;1637;42.020;23.992;2023-11-19T06:49:47;92610.94;;;7.47;61.23
3250;BME280;1637;42.020;23.992;2023-11-19T06:52:16;92604.25;;;8.71;57.91
3250;BME280;1637;42.020;23.992;2023-11-19T06:54:42;92618.78;;;10.20;55.26
3250;BME280;1637;42.020;23.992;2023-11-19T06:57:10;92615.38;;;10.16;54.84
3250;BME280;1637;42.020;23.992;2023-11-19T06:59:38;92592.47;;;9.10;57.17
3250;BME280;1637;42.020;23.992;2023-11-19T07:02:05;92618.41;;;9.54;57.04
3250;BME280;1637;42.020;23.992;2023-11-19T07:04:33;92614.38;;;9.73;55.92
3250;BME280;1637;42.020;23.992;2023-11-19T07:07:00;92612.75;;;11.20;53.63
3250;BME280;1637;42.020;23.992;2023-11-19T07:09:27;92622.88;;;10.82;51.93
3250;BME280;1637;42.020;23.992;2023-11-19T07:11:54;92631.84;;;10.99;53.53
3250;BME280;1637;42.020;23.992;2023-11-19T07:14:21;92643.00;;;11.64;51.12
3250;BME280;1637;42.020;23.992;2023-11-19T07:16:48;92655.19;;;11.92;49.74
3250;BME280;1637;42.020;23.992;2023-11-19T07:19:16;92652.84;;;12.33;49.19
3250;BME280;1637;42.020;23.992;2023-11-19T07:21:44;92659.41;;;10.99;50.88
3250;BME280;1637;42.020;23.992;2023-11-19T07:24:11;92666.59;;;11.02;49.59
3250;BME280;1637;42.020;23.992;2023-11-19T07:26:42;92663.72;;;11.63;47.01
3250;BME280;1637;42.020;23.992;2023-11-19T07:29:09;92676.28;;;12.69;45.96
3250;BME280;1637;42.020;23.992;2023-11-19T07:31:36;92670.59;;;12.83;43.63
3250;BME280;1637;42.020;23.992;2023-11-19T07:34:03;92677.31;;;14.05;42.30
3250;BME280;1637;42.020;23.992;2023-11-19T07:36:30;92680.94;;;13.37;42.01
3250;BME280;1637;42.020;23.992;2023-11-19T07:38:59;92670.34;;;12.78;45.53
3250;BME280;1637;42.020;23.992;2023-11-19T07:41:26;92680.91;;;13.04;43.27
3250;BME280;1637;42.020;23.992;2023-11-19T07:43:52;92671.75;;;12.07;45.26
3250;BME280;1637;42.020;23.992;2023-11-19T07:46:19;92675.81;;;15.00;39.87
3250;BME280;1637;42.020;23.992;2023-11-19T07:48:46;92676.47;;;15.55;37.16
3250;BME280;1637;42.020;23.992;2023-11-19T07:51:14;92679.19;;;15.04;37.39
3250;BME280;1637;42.020;23.992;2023-11-19T07:53:41;92680.69;;;14.92;37.65
3250;BME280;1637;42.020;23.992;2023-11-19T07:56:10;92681.53;;;15.40;36.63
3250;BME280;1637;42.020;23.992;2023-11-19T07:58:37;92691.31;;;16.75;34.98
3250;BME280;1637;42.020;23.992;2023-11-19T08:01:05;92684.75;;;13.03;40.76
3250;BME280;1637;42.020;23.992;2023-11-19T08:03:32;92666.41;;;14.25;39.86
3250;BME280;1637;42.020;23.992;2023-11-19T08:05:59;92684.22;;;15.40;36.66
3250;BME280;1637;42.020;23.992;2023-11-19T08:08:26;92683.00;;;13.78;38.47
3250;BME280;1637;42.020;23.992;2023-11-19T08:10:55;92680.16;;;11.19;43.36
3250;BME280;1637;42.020;23.992;2023-11-19T08:13:23;92690.47;;;11.90;44.36
3250;BME280;1637;42.020;23.992;2023-11-19T08:15:50;92683.38;;;11.80;43.08
3250;BME280;1637;42.020;23.992;2023-11-19T08:18:17;92683.78;;;11.55;43.59
3250;BME280;1637;42.020;23.992;2023-11-19T08:20:44;92674.63;;;11.76;43.66
3250;BME280;1637;42.020;23.992;2023-11-19T08:23:12;92694.34;;;14.15;39.62
3250;BME280;1637;42.020;23.992;2023-11-19T08:25:42;92703.53;;;14.75;37.99
3250;BME280;1637;42.020;23.992;2023-11-19T08:28:12;92698.25;;;14.42;38.22
3250;BME280;1637;42.020;23.992;2023-11-19T08:30:40;92693.59;;;13.85;39.51
3250;BME280;1637;42.020;23.992;2023-11-19T08:33:07;92691.41;;;14.25;39.33
3250;BME280;1637;42.020;23.992;2023-11-19T08:35:34;92688.63;;;14.29;38.70
3250;BME280;1637;42.020;23.992;2023-11-19T08:38:00;92675.97;;;11.18;43.29
3250;BME280;1637;42.020;23.992;2023-11-19T08:40:27;92677.66;;;11.31;42.89
3250;BME280;1637;42.020;23.992;2023-11-19T08:42:58;92689.00;;;14.43;38.28
3250;BME280;1637;42.020;23.992;2023-11-19T08:45:25;92689.63;;;12.72;38.76
3250;BME280;1637;42.020;23.992;2023-11-19T08:47:53;92686.72;;;12.83;41.52
3250;BME280;1637;42.020;23.992;2023-11-19T08:50:20;92693.63;;;11.39;44.18
3250;BME280;1637;42.020;23.992;2023-11-19T08:52:52;92650.66;;;13.17;40.91
3250;BME280;1637;42.020;23.992;2023-11-19T08:55:19;92670.63;;;12.99;40.87
3250;BME280;1637;42.020;23.992;2023-11-19T08:57:45;92664.47;;;11.64;43.26
3250;BME280;1637;42.020;23.992;2023-11-19T09:00:12;92677.31;;;14.05;38.94
3250;BME280;1637;42.020;23.992;2023-11-19T09:02:40;92649.91;;;12.64;40.74
3250;BME280;1637;42.020;23.992;2023-11-19T09:05:09;92685.81;;;13.58;40.26
3250;BME280;1637;42.020;23.992;2023-11-19T09:07:37;92698.41;;;14.52;37.92
3250;BME280;1637;42.020;23.992;2023-11-19T09:10:04;92685.03;;;12.89;44.96
3250;BME280;1637;42.020;23.992;2023-11-19T09:12:34;92685.00;;;11.74;41.71
3250;BME280;1637;42.020;23.992;2023-11-19T09:15:00;92658.34;;;9.68;46.40
3250;BME280;1637;42.020;23.992;2023-11-19T09:17:27;92669.09;;;11.17;44.40
3250;BME280;1637;42.020;23.992;2023-11-19T09:19:54;92674.66;;;11.73;43.93
3250;BME280;1637;42.020;23.992;2023-11-19T09:22:22;92678.47;;;10.78;44.55
3250;BME280;1637;42.020;23.992;2023-11-19T09:24:49;92675.41;;;13.28;40.56
3250;BME280;1637;42.020;23.992;2023-11-19T09:27:16;92661.91;;;12.59;41.45
3250;BME280;1637;42.020;23.992;2023-11-19T09:29:43;92659.44;;;11.89;42.60
3250;BME280;1637;42.020;23.992;2023-11-19T09:32:11;92658.56;;;13.07;40.19
3250;BME280;1637;42.020;23.992;2023-11-19T09:34:38;92656.56;;;12.00;43.61
3250;BME280;1637;42.020;23.992;2023-11-19T09:37:04;92662.59;;;13.16;40.43
3250;BME280;1637;42.020;23.992;2023-11-19T09:39:33;92649.75;;;11.72;42.32
3250;BME280;1637;42.020;23.992;2023-11-19T09:42:00;92651.09;;;11.17;44.10
3250;BME280;1637;42.020;23.992;2023-11-19T09:44:27;92634.31;;;9.64;45.67
3250;BME280;1637;42.020;23.992;2023-11-19T09:46:55;92636.13;;;11.20;43.51
3250;BME280;1637;42.020;23.992;2023-11-19T09:49:25;92632.00;;;12.21;41.54
3250;BME280;1637;42.020;23.992;2023-11-19T09:51:52;92641.53;;;12.78;41.06
3250;BME280;1637;42.020;23.992;2023-11-19T09:54:19;92664.06;;;12.09;42.75
3250;BME280;1637;42.020;23.992;2023-11-19T09:56:48;92674.53;;;12.43;41.27
3250;BME280;1637;42.020;23.992;2023-11-19T09:59:15;92671.00;;;11.86;42.31
3250;BME280;1637;42.020;23.992;2023-11-19T10:01:45;92634.34;;;11.10;42.99
3250;BME280;1637;42.020;23.992;2023-11-19T10:04:15;92656.63;;;11.77;42.43
3250;BME280;1637;42.020;23.992;2023-11-19T10:06:42;92661.00;;;11.87;42.89
3250;BME280;1637;42.020;23.992;2023-11-19T10:09:09;92651.25;;;11.77;42.80
3250;BME280;1637;42.020;23.992;2023-11-19T10:11:41;92659.22;;;11.57;43.78
3250;BME280;1637;42.020;23.992;2023-11-19T10:14:09;92682.81;;;10.38;46.30
3250;BME280;1637;42.020;23.992;2023-11-19T10:16:38;92627.13;;;8.72;48.40
3250;BME280;1637;42.020;23.992;2023-11-19T10:19:05;92645.97;;;9.44;50.07
3250;BME280;1637;42.020;23.992;2023-11-19T10:21:32;92655.69;;;9.64;49.00
3250;BME280;1637;42.020;23.992;2023-11-19T10:23:59;92647.34;;;10.30;46.55
3250;BME280;1637;42.020;23.992;2023-11-19T10:26:27;92645.47;;;10.58;45.50
3250;BME280;1637;42.020;23.992;2023-11-19T10:28:55;92646.59;;;10.30;45.81
3250;BME280;1637;42.020;23.992;2023-11-19T10:31:24;92628.09;;;9.37;48.24
3250;BME280;1637;42.020;23.992;2023-11-19T10:33:51;92628.06;;;10.43;47.64
3250;BME280;1637;42.020;23.992;2023-11-19T10:36:18;92620.88;;;10.63;46.17
3250;BME280;1637;42.020;23.992;2023-11-19T10:38:52;92596.41;;;10.38;46.79
3250;BME280;1637;42.020;23.992;2023-11-19T10:41:29;92612.38;;;10.95;45.31
3250;BME280;1637;42.020;23.992;2023-11-19T10:43:56;92609.84;;;10.84;45.24
3250;BME280;1637;42.020;23.992;2023-11-19T10:46:36;92625.81;;;10.91;45.71
3250;BME280;1637;42.020;23.992;2023-11-19T10:49:04;92632.31;;;10.67;45.22
3250;BME280;1637;42.020;23.992;2023-11-19T10:51:32;92615.78;;;9.81;48.89
3250;BME280;1637;42.020;23.992;2023-11-19T10:54:02;92613.75;;;10.26;46.76
3250;BME280;1637;42.020;23.992;2023-11-19T10:56:31;92613.41;;;10.51;46.47
3250;BME280;1637;42.020;23.992;2023-11-19T10:58:59;92614.81;;;10.86;46.02
3250;BME280;1637;42.020;23.992;2023-11-19T11:01:34;92613.19;;;10.65;45.17
3250;BME280;1637;42.020;23.992;2023-11-19T11:04:03;92625.03;;;10.67;46.18
3250;BME280;1637;42.020;23.992;2023-11-19T11:06:33;92617.03;;;10.64;45.96
3250;BME280;1637;42.020;23.992;2023-11-19T11:09:00;92611.72;;;10.87;46.03
3250;BME280;1637;42.020;23.992;2023-11-19T11:11:28;92609.31;;;10.70;45.97
3250;BME280;1637;42.020;23.992;2023-11-19T11:13:56;92605.16;;;10.92;47.04
3250;BME280;1637;42.020;23.992;2023-11-19T11:16:25;92600.56;;;10.65;46.29
3250;BME280;1637;42.020;23.992;2023-11-19T11:18:54;92603.19;;;10.69;46.89
3250;BME280;1637;42.020;23.992;2023-11-19T11:21:23;92607.88;;;10.88;45.79
3250;BME280;1637;42.020;23.992;2023-11-19T11:24:10;92606.81;;;10.82;44.61
3250;BME280;1637;42.020;23.992;2023-11-19T11:29:44;92588.94;;;10.76;45.07
3250;BME280;1637;42.020;23.992;2023-11-19T11:32:22;92590.81;;;10.79;45.82
3250;BME280;1637;42.020;23.992;2023-11-19T11:34:58;92591.13;;;10.57;46.35
3250;BME280;1637;42.020;23.992;2023-11-19T11:37:36;92553.78;;;10.47;47.50
3250;BME280;1637;42.020;23.992;2023-11-19T11:40:05;92574.75;;;11.65;45.63
3250;BME280;1637;42.020;23.992;2023-11-19T11:42:36;92575.06;;;11.90;44.66
3250;BME280;1637;42.020;23.992;2023-11-19T11:45:05;92562.41;;;11.28;44.72
3250;BME280;1637;42.020;23.992;2023-11-19T11:50:53;92563.75;;;10.96;45.62
3250;BME280;1637;42.020;23.992;2023-11-19T11:53:20;92572.34;;;11.51;45.82
3250;BME280;1637;42.020;23.992;2023-11-19T11:55:56;92568.00;;;12.00;44.44
3250;BME280;1637;42.020;23.992;2023-11-19T11:58:29;92568.41;;;11.79;44.97
3250;BME280;1637;42.020;23.992;2023-11-19T12:00:58;92532.22;;;11.24;45.56
3250;BME280;1637;42.020;23.992;2023-11-19T12:03:28;92551.97;;;10.67;46.73
3250;BME280;1637;42.020;23.992;2023-11-19T12:05:57;92535.59;;;10.61;45.83
3250;BME280;1637;42.020;23.992;2023-11-19T12:08:27;92551.47;;;10.49;46.53
3250;BME280;1637;42.020;23.992;2023-11-19T12:10:56;92547.97;;;9.64;48.04
3250;BME280;1637;42.020;23.992;2023-11-19T12:13:24;92553.84;;;10.43;47.06
3250;BME280;1637;42.020;23.992;2023-11-19T12:16:18;92546.31;;;11.08;46.02
3250;BME280;1637;42.020;23.992;2023-11-19T12:18:47;92548.94;;;11.12;45.27
3250;BME280;1637;42.020;23.992;2023-11-19T12:21:29;92533.97;;;10.91;45.41
3250;BME280;1637;42.020;23.992;2023-11-19T12:23:58;92543.47;;;10.95;45.67
3250;BME280;1637;42.020;23.992;2023-11-19T12:26:38;92549.69;;;10.65;46.22
3250;BME280;1637;42.020;23.992;2023-11-19T12:29:05;92551.09;;;10.74;45.62
3250;BME280;1637;42.020;23.992;2023-11-19T12:31:33;92556.56;;;10.40;46.33
3250;BME280;1637;42.020;23.992;2023-11-19T12:34:07;92556.72;;;10.56;46.84
3250;BME280;1637;42.020;23.992;2023-11-19T12:36:39;92548.06;;;10.18;47.51
3250;BME280;1637;42.020;23.992;2023-11-19T12:39:07;92547.38;;;10.14;47.78
3250;BME280;1637;42.020;23.992;2023-11-19T12:41:49;92545.00;;;10.19;47.89
3250;BME280;1637;42.020;23.992;2023-11-19T12:44:16;92547.84;;;10.36;47.41
3250;BME280;1637;42.020;23.992;2023-11-19T12:46:43;92535.72;;;10.78;47.10
3250;BME280;1637;42.020;23.992;2023-11-19T12:49:11;92542.16;;;10.33;46.80
3250;BME280;1637;42.020;23.992;2023-11-19T12:51:40;92532.50;;;10.09;47.50
3250;BME280;1637;42.020;23.992;2023-11-19T12:54:07;92533.50;;;10.49;47.93
3250;BME280;1637;42.020;23.992;2023-11-19T12:56:34;92531.59;;;10.96;48.86
3250;BME280;1637;42.020;23.992;2023-11-19T12:59:10;92530.78;;;10.99;47.44
3250;BME280;1637;42.020;23.992;2023-11-19T13:01:38;92542.28;;;10.50;46.85
3250;BME280;1637;42.020;23.992;2023-11-19T13:04:16;92526.91;;;9.70;48.13
3250;BME280;1637;42.020;23.992;2023-11-19T13:06:46;92518.81;;;9.77;49.16
3250;BME280;1637;42.020;23.992;2023-11-19T13:09:22;92526.19;;;9.65;48.91
3250;BME280;1637;42.020;23.992;2023-11-19T13:11:49;92522.53;;;9.52;48.38
3250;BME280;1637;42.020;23.992;2023-11-19T13:14:17;92516.81;;;9.81;48.79
3250;BME280;1637;42.020;23.992;2023-11-19T13:16:44;92513.91;;;9.72;48.95
3250;BME280;1637;42.020;23.992;2023-11-19T13:19:12;92507.75;;;9.75;48.97
3250;BME280;1637;42.020;23.992;2023-11-19T13:21:39;92496.06;;;9.92;48.00
3250;BME280;1637;42.020;23.992;2023-11-19T13:24:07;92495.94;;;9.72;47.97
3250;BME280;1637;42.020;23.992;2023-11-19T13:26:44;92509.75;;;9.97;48.29
3250;BME280;1637;42.020;23.992;2023-11-19T13:29:25;92512.09;;;9.92;47.20